Results by/Résultats par Info:[email protected] Phone: (613)260-0994


                                    K-TOWN TRIATHLON

                                Sunday August 1st, 2004

                         Confederation Park, Kingston, Ontario

                      Overall Team Results - Long Course Triathlon

  -----FINAL------ ----------------------- ------------------------ ----           2 km                      56.5 km                   15 km
                                           Category                       -------SWIM + T1------    ----------BIKE--------    -------RUN + T2-------
    Pos      Time  Teamname                Plc/Total Category         #    Cat  Ovr  Time  /100m     Cat Ovr Time  km/hr      Cat  Ovr  Time    km
  ------  -------- ----------------------- ------------------------ ----  ----------------------    ----------------------    ----------------------
    1     3:20:27 Trois Pistoles            1/15  Coed Relay        608  3      6   32:54  1:39    3      5 1:42:16  33.2     1      1 1:05:19  4:22 
    2     3:28:31 McMaster/Orr/Warren       1/5   Men's Relay       606  4     14   40:54  2:03    1      2 1:35:24  35.5     1      5 1:12:14  4:49 
    3     3:29:00 Agdoron                   2/15  Coed Relay        605  7     13   40:25  2:02    4      6 1:42:45  33.0     3      3 1:05:52  4:24 
    4     3:29:02 Barefoot Relaxed 2        3/15  Coed Relay        620  2      5   32:05  1:37    5      7 1:42:58  32.9     4      7 1:13:59  4:56 
    5     3:31:06 H+2O'S                    4/15  Coed Relay        629  1      1   28:15  1:25    6      8 1:43:22  32.8     11    16 1:19:29  5:18 
    6     3:31:30 Labour and Deliver        5/15  Coed Relay        610  5     11   38:20  1:55    1      1 1:34:34  35.9     9     14 1:18:38  5:15 
    7     3:32:43 Lansdowne Freshmart Spe   6/15  Coed Relay        624  6     12   40:13  2:01    2      4 1:36:17  35.2     5     10 1:16:14  5:05 
    8     3:32:58 Can-Am                    1/6   Women's Relay     614  3      9   37:20  1:52    1      3 1:35:33  35.5     2     18 1:20:07  5:21 
    9     3:34:19 men in green              2/5   Men's Relay       613  1      4   30:59  1:33    4     13 1:47:18  31.6     4      9 1:16:03  5:05 
   10     3:35:33 Ottawa S                  3/5   Men's Relay       628  2      7   36:07  1:49    2     10 1:44:13  32.5     3      8 1:15:14  5:01 
   11     3:36:44 Cuba Libre                4/5   Men's Relay       625  3     10   37:21  1:53    3     12 1:46:42  31.8     2      6 1:12:41  4:51 
   12     3:47:21 Team Extreme              7/15  Coed Relay        621  11    19   43:55  2:12    12    19 1:58:07  28.7     2      2 1:05:20  4:22 
   13     3:50:11 LeBaron/Sviajina/O'Mall   2/6   Women's Relay     622  4     23   48:01  2:25    2     16 1:53:39  29.8     1      4 1:08:32  4:35 
   14     3:50:20 Emergency Services        8/15  Coed Relay        601  8     15   40:56  2:03    10    15 1:50:27  30.7     10    15 1:18:59  5:16 
   15     3:51:46 Miller/Owen/Hendry        9/15  Coed Relay        607  4      8   36:42  1:51    8     11 1:45:27  32.2     14    23 1:29:38  5:59 
   16     3:52:20 The Canaussies           10/15  Coed Relay        619  9     17   43:18  2:10    9     14 1:49:19  31.0     12    17 1:19:44  5:19 
   17     3:56:56 The 'B' Team              3/6   Women's Relay     627  2      3   28:56  1:27    4     20 1:59:22  28.4     5     22 1:28:39  5:55 
   18     3:58:20 A.L.L.Stars               4/6   Women's Relay     626  1      2   28:17  1:25    3     18 1:57:15  28.9     6     25 1:32:49  6:12 
   19     3:59:41 The Soft Cores           11/15  Coed Relay        618  15    24   48:03  2:25    7      9 1:43:45  32.7     13    19 1:27:53  5:52 
   20     4:00:28 3 For Trying             12/15  Coed Relay        604  14    22   47:10  2:22    11    17 1:56:13  29.2     7     12 1:17:05  5:09 
   21     4:02:09 Are We Crazy             13/15  Coed Relay        603  10    18   43:51  2:12    13    21 2:01:37  27.9     6     11 1:16:42  5:07 
   22     4:14:04 The Old Spinners         14/15  Coed Relay        611  13    21   46:27  2:20    14    22 2:09:26  26.2     8     13 1:18:11  5:13 
   23     4:30:42 LEVAC SUPPLY PREDATORS   15/15  Coed Relay        612  12    20   46:22  2:20    15    23 2:12:50  25.5     15    24 1:31:31  6:07 
   24     4:32:45 Trenton Tri-Girls         5/6   Women's Relay     616  6     26   49:58  2:30    5     24 2:14:10  25.3     4     21 1:28:38  5:55 
   25     4:32:46 Team MGM                  6/6   Women's Relay     623  5     25   49:44  2:30    6     25 2:14:43  25.2     3     20 1:28:20  5:54 
   26     4:40:39 Daredevils                5/5   Men's Relay       615  5     16   42:26  2:08    5     26 2:19:49  24.2     5     26 1:38:25  6:34